createdAt,value
2023-03-16T00:01:20.090Z,22
2023-03-16T00:06:20.101Z,25
2023-03-16T00:11:20.101Z,21
2023-03-16T00:16:20.090Z,20
2023-03-16T00:21:20.102Z,23
2023-03-16T00:26:20.091Z,15
2023-03-16T00:31:20.102Z,19
2023-03-16T00:36:20.102Z,22
2023-03-16T00:41:20.103Z,22
2023-03-16T00:46:20.127Z,19
2023-03-16T00:51:20.092Z,16
2023-03-16T00:56:20.105Z,21
2023-03-16T01:01:20.093Z,15
2023-03-16T01:06:20.104Z,18
2023-03-16T01:11:20.104Z,17
2023-03-16T01:16:20.113Z,22
2023-03-16T01:21:20.105Z,22
2023-03-16T01:26:20.094Z,21
2023-03-16T01:36:20.094Z,20
2023-03-16T01:41:20.105Z,22
2023-03-16T01:46:20.105Z,27
2023-03-16T01:51:20.095Z,28
2023-03-16T01:56:20.106Z,21
2023-03-16T02:01:20.095Z,21
2023-03-16T02:06:20.106Z,19
2023-03-16T02:11:20.106Z,22
2023-03-16T02:16:20.106Z,21
2023-03-16T02:21:20.107Z,22
2023-03-16T02:26:20.096Z,18
2023-03-16T02:31:20.107Z,18
2023-03-16T02:36:20.096Z,17
2023-03-16T02:41:20.107Z,13
2023-03-16T02:46:20.107Z,20
2023-03-16T02:51:20.097Z,19
2023-03-16T02:56:20.108Z,17
2023-03-16T03:01:20.097Z,25
2023-03-16T03:06:20.108Z,22
2023-03-16T03:11:20.097Z,21
2023-03-16T03:16:20.108Z,27
2023-03-16T03:21:20.109Z,29
2023-03-16T03:26:20.098Z,29
2023-03-16T03:31:20.174Z,28
2023-03-16T03:36:20.098Z,29
2023-03-16T03:41:20.117Z,24
2023-03-16T03:46:20.109Z,23
2023-03-16T03:51:20.109Z,18
2023-03-16T03:56:20.110Z,14
2023-03-16T04:01:20.098Z,19
2023-03-16T04:06:20.109Z,26
2023-03-16T04:11:20.098Z,31
2023-03-16T04:16:20.109Z,25
2023-03-16T04:21:20.109Z,25
2023-03-16T04:26:20.099Z,28
2023-03-16T04:31:20.110Z,22
2023-03-16T04:36:20.099Z,24
2023-03-16T04:41:20.110Z,21
2023-03-16T04:46:20.110Z,25
2023-03-16T04:51:20.110Z,23
2023-03-16T04:56:20.111Z,25
2023-03-16T05:01:20.100Z,33
2023-03-16T05:06:20.111Z,29
2023-03-16T05:11:20.100Z,34
2023-03-16T05:16:20.111Z,30
2023-03-16T05:21:20.111Z,37
2023-03-16T05:26:20.100Z,27
2023-03-16T05:31:20.112Z,35
2023-03-16T05:36:20.100Z,39
2023-03-16T05:41:20.111Z,35
2023-03-16T05:46:20.111Z,32
2023-03-16T05:51:20.112Z,33
2023-03-16T05:56:20.136Z,38
2023-03-16T06:01:20.101Z,51
2023-03-16T06:06:20.114Z,51
2023-03-16T06:11:20.101Z,62
2023-03-16T06:16:20.113Z,88
2023-03-16T06:21:20.113Z,65
2023-03-16T06:26:20.138Z,48
2023-03-16T06:31:20.114Z,55
2023-03-16T06:36:20.103Z,64
2023-03-16T06:41:20.114Z,73
2023-03-16T06:46:20.103Z,59
2023-03-16T06:51:20.115Z,71
2023-03-16T06:56:20.115Z,64
2023-03-16T07:01:20.104Z,82
2023-03-16T07:06:20.116Z,74
2023-03-16T07:11:20.105Z,70
2023-03-16T07:16:20.116Z,69
2023-03-16T07:21:20.117Z,60
2023-03-16T07:26:20.117Z,59
2023-03-16T07:31:20.118Z,58
2023-03-16T07:36:20.107Z,74
2023-03-16T07:41:20.119Z,66
2023-03-16T07:46:20.109Z,64
2023-03-16T07:51:20.121Z,95
2023-03-16T07:56:20.122Z,68
2023-03-16T08:01:20.112Z,98
2023-03-16T08:06:20.125Z,70
2023-03-16T08:11:20.115Z,75
2023-03-16T08:16:20.127Z,86
2023-03-16T08:21:20.128Z,90
2023-03-16T08:26:20.130Z,87
2023-03-16T08:31:20.155Z,90
2023-03-16T08:36:20.122Z,89
2023-03-16T08:41:20.137Z,84
2023-03-16T08:46:20.126Z,87
2023-03-16T08:51:20.138Z,87
2023-03-16T08:56:20.140Z,96
2023-03-16T09:01:20.142Z,121
2023-03-16T09:06:20.145Z,91
2023-03-16T09:11:20.135Z,93
2023-03-16T09:16:20.149Z,85
2023-03-16T09:21:20.139Z,88
2023-03-16T09:26:20.152Z,82
2023-03-16T09:31:20.154Z,102
2023-03-16T09:36:20.146Z,99
2023-03-16T09:41:20.159Z,122
2023-03-16T09:46:20.149Z,136
2023-03-16T09:51:20.161Z,129
2023-03-16T09:56:20.163Z,132
2023-03-16T10:01:20.165Z,121
2023-03-16T10:06:20.168Z,112
2023-03-16T10:11:20.159Z,116
2023-03-16T10:16:20.172Z,119
2023-03-16T10:21:20.163Z,113
2023-03-16T10:26:20.176Z,112
2023-03-16T10:31:20.178Z,139
2023-03-16T10:36:20.169Z,132
2023-03-16T10:41:20.183Z,131
2023-03-16T10:46:20.174Z,134
2023-03-16T10:51:20.187Z,109
2023-03-16T10:56:20.178Z,116
2023-03-16T11:01:20.191Z,113
2023-03-16T11:06:20.193Z,133
2023-03-16T11:11:20.185Z,122
2023-03-16T11:16:20.224Z,146
2023-03-16T11:21:20.189Z,180
2023-03-16T11:26:20.202Z,188
2023-03-16T11:31:20.204Z,211
2023-03-16T11:36:20.206Z,188
2023-03-16T11:41:20.208Z,177
2023-03-16T11:46:20.198Z,163
2023-03-16T11:51:20.211Z,162
2023-03-16T11:56:20.201Z,220
2023-03-16T12:01:20.214Z,214
2023-03-16T12:06:20.216Z,223
2023-03-16T12:11:20.207Z,216
2023-03-16T12:16:20.220Z,188
2023-03-16T12:21:20.211Z,202
2023-03-16T12:26:20.223Z,206
2023-03-16T12:31:20.226Z,184
2023-03-16T12:36:20.228Z,167
2023-03-16T12:41:20.231Z,172
2023-03-16T12:46:20.222Z,187
2023-03-16T12:51:20.235Z,169
2023-03-16T12:56:20.226Z,138
2023-03-16T13:01:20.240Z,153
2023-03-16T13:06:20.242Z,146
2023-03-16T13:11:20.244Z,166
2023-03-16T13:16:20.246Z,151
2023-03-16T13:21:20.237Z,141
2023-03-16T13:26:20.249Z,134
2023-03-16T13:31:20.251Z,156
2023-03-16T13:36:20.253Z,134
2023-03-16T13:41:20.303Z,114
2023-03-16T13:46:20.246Z,139
2023-03-16T13:51:20.262Z,129
2023-03-16T13:56:20.250Z,135
2023-03-16T14:01:20.263Z,106
2023-03-16T14:06:20.265Z,110
2023-03-16T14:11:20.268Z,116
2023-03-16T14:16:20.270Z,130
2023-03-16T14:21:20.261Z,120
2023-03-16T14:26:20.274Z,108
2023-03-16T14:31:20.265Z,123
2023-03-16T14:36:20.278Z,133
2023-03-16T14:41:20.280Z,142
2023-03-16T14:46:20.271Z,177
2023-03-16T14:51:20.285Z,153
2023-03-16T14:56:20.275Z,138
2023-03-16T15:01:20.288Z,119
2023-03-16T15:06:20.290Z,110
2023-03-16T15:11:20.291Z,160
2023-03-16T15:16:20.294Z,168
2023-03-16T15:21:20.284Z,135
2023-03-16T15:26:20.296Z,149
2023-03-16T15:31:20.287Z,165
2023-03-16T15:36:20.299Z,147
2023-03-16T15:41:20.301Z,177
2023-03-16T15:46:20.291Z,179
2023-03-16T15:51:20.304Z,148
2023-03-16T15:56:20.294Z,132
2023-03-16T16:01:20.307Z,167
2023-03-16T16:06:20.297Z,148
2023-03-16T16:11:20.310Z,116
2023-03-16T16:16:20.312Z,150
2023-03-16T16:21:20.301Z,151
2023-03-16T16:26:20.339Z,105
2023-03-16T16:31:20.304Z,126
2023-03-16T16:36:20.316Z,126
2023-03-16T16:41:20.317Z,101
2023-03-16T16:46:20.319Z,134
2023-03-16T16:51:20.321Z,118
2023-03-16T16:56:20.310Z,126
2023-03-16T17:01:20.323Z,135
2023-03-16T17:06:20.313Z,102
2023-03-16T17:11:20.325Z,125
2023-03-16T17:16:20.326Z,137
2023-03-16T17:21:20.317Z,123
2023-03-16T17:26:20.329Z,110
2023-03-16T17:31:20.319Z,128
2023-03-16T17:36:20.331Z,135
2023-03-16T17:41:20.332Z,143
2023-03-16T17:46:20.333Z,172
2023-03-16T17:51:20.335Z,124
2023-03-16T17:56:20.324Z,114
2023-03-16T18:01:20.336Z,151
2023-03-16T18:06:20.326Z,107
2023-03-16T18:11:20.403Z,92
2023-03-16T18:16:20.339Z,99
2023-03-16T18:21:20.330Z,113
2023-03-16T18:26:20.342Z,99
2023-03-16T18:31:20.332Z,104
2023-03-16T18:36:20.344Z,105
2023-03-16T18:41:20.334Z,86
2023-03-16T18:46:20.346Z,96
2023-03-16T18:51:20.347Z,103
2023-03-16T18:56:20.337Z,113
2023-03-16T19:01:20.349Z,111
2023-03-16T19:06:20.339Z,84
2023-03-16T19:11:20.351Z,57
2023-03-16T19:16:20.352Z,75
2023-03-16T19:21:20.353Z,72
2023-03-16T19:26:20.354Z,87
2023-03-16T19:31:20.344Z,81
2023-03-16T19:36:20.356Z,72
2023-03-16T19:41:20.346Z,67
2023-03-16T19:46:20.358Z,81
2023-03-16T19:51:20.358Z,78
2023-03-16T19:56:20.349Z,86
2023-03-16T20:01:20.361Z,84
2023-03-16T20:06:20.350Z,64
2023-03-16T20:11:20.362Z,55
2023-03-16T20:16:20.363Z,84
2023-03-16T20:21:20.364Z,82
2023-03-16T20:26:20.365Z,74
2023-03-16T20:31:20.355Z,72
2023-03-16T20:36:20.367Z,56
2023-03-16T20:41:20.357Z,64
2023-03-16T20:46:20.368Z,55
2023-03-16T20:51:20.369Z,50
2023-03-16T20:56:20.359Z,43
2023-03-16T21:01:20.372Z,48
2023-03-16T21:06:20.361Z,52
2023-03-16T21:11:20.373Z,44
2023-03-16T21:16:20.374Z,38
2023-03-16T21:21:20.375Z,36
2023-03-16T21:26:20.376Z,44
2023-03-16T21:31:20.365Z,39
2023-03-16T21:36:20.403Z,43
2023-03-16T21:41:20.367Z,38
2023-03-16T21:46:20.379Z,43
2023-03-16T21:51:20.380Z,36
2023-03-16T21:56:20.381Z,33
2023-03-16T22:01:20.382Z,39
2023-03-16T22:06:20.372Z,27
2023-03-16T22:11:20.383Z,29
2023-03-16T22:16:20.373Z,30
2023-03-16T22:21:20.385Z,27
2023-03-16T22:26:20.386Z,23
2023-03-16T22:31:20.376Z,28
2023-03-16T22:36:20.388Z,43
2023-03-16T22:41:20.377Z,43
2023-03-16T22:46:20.389Z,37
2023-03-16T22:51:20.390Z,20
2023-03-16T22:56:20.391Z,19
2023-03-16T23:01:20.392Z,21
2023-03-16T23:06:20.382Z,23
2023-03-16T23:11:20.393Z,24
2023-03-16T23:16:20.383Z,21
2023-03-16T23:21:20.395Z,17
2023-03-16T23:26:20.396Z,22
2023-03-16T23:31:20.386Z,22
2023-03-16T23:36:20.398Z,18
2023-03-16T23:41:20.387Z,19
2023-03-16T23:46:20.399Z,21
2023-03-16T23:51:20.389Z,15
2023-03-16T23:56:20.401Z,21
